sensor_id;sensor_type;location;lat;lon;timestamp;P1;durP1;ratioP1;P2;durP2;ratioP2
4634;SDS011;2330;48.158;11.816;2022-07-19T00:02:16;5.00;;;1.80;;
4634;SDS011;2330;48.158;11.816;2022-07-19T00:04:43;2.40;;;1.80;;
4634;SDS011;2330;48.158;11.816;2022-07-19T00:07:09;2.73;;;2.20;;
4634;SDS011;2330;48.158;11.816;2022-07-19T00:09:36;4.07;;;2.40;;
4634;SDS011;2330;48.158;11.816;2022-07-19T00:12:03;2.70;;;2.50;;
4634;SDS011;2330;48.158;11.816;2022-07-19T00:14:30;3.23;;;2.40;;
4634;SDS011;2330;48.158;11.816;2022-07-19T00:16:57;4.80;;;2.60;;
4634;SDS011;2330;48.158;11.816;2022-07-19T00:19:24;3.20;;;2.70;;
4634;SDS011;2330;48.158;11.816;2022-07-19T00:21:50;4.73;;;2.53;;
4634;SDS011;2330;48.158;11.816;2022-07-19T00:24:17;2.60;;;2.40;;
4634;SDS011;2330;48.158;11.816;2022-07-19T00:26:44;4.30;;;2.83;;
4634;SDS011;2330;48.158;11.816;2022-07-19T00:29:10;4.47;;;2.33;;
4634;SDS011;2330;48.158;11.816;2022-07-19T00:31:37;4.63;;;2.30;;
4634;SDS011;2330;48.158;11.816;2022-07-19T00:34:04;4.63;;;2.30;;
4634;SDS011;2330;48.158;11.816;2022-07-19T00:36:31;10.40;;;2.37;;
4634;SDS011;2330;48.158;11.816;2022-07-19T00:38:57;4.93;;;2.20;;
4634;SDS011;2330;48.158;11.816;2022-07-19T00:41:24;1.90;;;1.80;;
4634;SDS011;2330;48.158;11.816;2022-07-19T00:43:51;6.13;;;2.30;;
4634;SDS011;2330;48.158;11.816;2022-07-19T00:46:19;2.40;;;2.03;;
4634;SDS011;2330;48.158;11.816;2022-07-19T00:48:48;3.57;;;2.70;;
4634;SDS011;2330;48.158;11.816;2022-07-19T00:51:17;4.00;;;2.10;;
4634;SDS011;2330;48.158;11.816;2022-07-19T00:53:45;2.20;;;2.00;;
4634;SDS011;2330;48.158;11.816;2022-07-19T00:56:13;3.77;;;2.70;;
4634;SDS011;2330;48.158;11.816;2022-07-19T00:58:41;5.13;;;2.60;;
4634;SDS011;2330;48.158;11.816;2022-07-19T01:01:08;5.33;;;1.70;;
4634;SDS011;2330;48.158;11.816;2022-07-19T01:03:36;2.10;;;1.90;;
4634;SDS011;2330;48.158;11.816;2022-07-19T01:06:05;6.10;;;2.20;;
4634;SDS011;2330;48.158;11.816;2022-07-19T01:08:33;3.50;;;2.13;;
4634;SDS011;2330;48.158;11.816;2022-07-19T01:11:03;4.10;;;2.10;;
4634;SDS011;2330;48.158;11.816;2022-07-19T01:13:31;3.00;;;2.70;;
4634;SDS011;2330;48.158;11.816;2022-07-19T01:15:59;2.53;;;2.20;;
4634;SDS011;2330;48.158;11.816;2022-07-19T01:18:27;4.83;;;2.10;;
4634;SDS011;2330;48.158;11.816;2022-07-19T01:20:54;8.43;;;2.77;;
4634;SDS011;2330;48.158;11.816;2022-07-19T01:23:22;2.47;;;2.27;;
4634;SDS011;2330;48.158;11.816;2022-07-19T01:25:50;3.13;;;2.37;;
4634;SDS011;2330;48.158;11.816;2022-07-19T01:28:16;5.07;;;2.60;;
4634;SDS011;2330;48.158;11.816;2022-07-19T01:30:43;4.47;;;3.03;;
4634;SDS011;2330;48.158;11.816;2022-07-19T01:33:11;5.40;;;2.77;;
4634;SDS011;2330;48.158;11.816;2022-07-19T01:35:38;5.43;;;2.80;;
4634;SDS011;2330;48.158;11.816;2022-07-19T01:38:04;8.90;;;2.50;;
4634;SDS011;2330;48.158;11.816;2022-07-19T01:40:31;5.70;;;2.53;;
4634;SDS011;2330;48.158;11.816;2022-07-19T01:42:59;5.80;;;2.30;;
4634;SDS011;2330;48.158;11.816;2022-07-19T01:45:26;2.60;;;2.40;;
4634;SDS011;2330;48.158;11.816;2022-07-19T01:47:53;3.47;;;2.43;;
4634;SDS011;2330;48.158;11.816;2022-07-19T01:50:20;3.70;;;2.43;;
4634;SDS011;2330;48.158;11.816;2022-07-19T01:52:47;7.47;;;2.70;;
4634;SDS011;2330;48.158;11.816;2022-07-19T01:55:16;2.67;;;2.37;;
4634;SDS011;2330;48.158;11.816;2022-07-19T01:57:44;4.47;;;2.67;;
4634;SDS011;2330;48.158;11.816;2022-07-19T02:00:12;2.93;;;2.63;;
4634;SDS011;2330;48.158;11.816;2022-07-19T02:02:39;5.57;;;2.37;;
4634;SDS011;2330;48.158;11.816;2022-07-19T02:05:06;3.23;;;2.97;;
4634;SDS011;2330;48.158;11.816;2022-07-19T02:07:36;3.57;;;2.37;;
4634;SDS011;2330;48.158;11.816;2022-07-19T02:10:04;4.80;;;2.53;;
4634;SDS011;2330;48.158;11.816;2022-07-19T02:12:32;2.33;;;2.13;;
4634;SDS011;2330;48.158;11.816;2022-07-19T02:14:59;4.70;;;2.83;;
4634;SDS011;2330;48.158;11.816;2022-07-19T02:17:26;6.17;;;2.30;;
4634;SDS011;2330;48.158;11.816;2022-07-19T02:19:52;3.60;;;2.00;;
4634;SDS011;2330;48.158;11.816;2022-07-19T02:22:19;2.50;;;2.30;;
4634;SDS011;2330;48.158;11.816;2022-07-19T02:24:46;3.87;;;2.40;;
4634;SDS011;2330;48.158;11.816;2022-07-19T02:27:12;2.50;;;2.30;;
4634;SDS011;2330;48.158;11.816;2022-07-19T02:29:39;2.43;;;2.23;;
4634;SDS011;2330;48.158;11.816;2022-07-19T02:32:06;5.43;;;2.17;;
4634;SDS011;2330;48.158;11.816;2022-07-19T02:34:34;4.67;;;3.00;;
4634;SDS011;2330;48.158;11.816;2022-07-19T02:37:01;4.00;;;2.30;;
4634;SDS011;2330;48.158;11.816;2022-07-19T02:39:29;2.60;;;2.40;;
4634;SDS011;2330;48.158;11.816;2022-07-19T02:41:55;3.47;;;2.57;;
4634;SDS011;2330;48.158;11.816;2022-07-19T02:44:22;14.07;;;2.60;;
4634;SDS011;2330;48.158;11.816;2022-07-19T02:46:49;3.27;;;2.20;;
4634;SDS011;2330;48.158;11.816;2022-07-19T02:49:16;3.40;;;2.87;;
4634;SDS011;2330;48.158;11.816;2022-07-19T02:51:43;2.70;;;2.17;;
4634;SDS011;2330;48.158;11.816;2022-07-19T02:54:10;2.47;;;2.27;;
4634;SDS011;2330;48.158;11.816;2022-07-19T02:56:36;1.97;;;1.87;;
4634;SDS011;2330;48.158;11.816;2022-07-19T02:59:03;2.50;;;2.30;;
4634;SDS011;2330;48.158;11.816;2022-07-19T03:01:31;2.97;;;2.27;;
4634;SDS011;2330;48.158;11.816;2022-07-19T03:03:59;4.40;;;3.13;;
4634;SDS011;2330;48.158;11.816;2022-07-19T03:06:26;2.83;;;2.53;;
4634;SDS011;2330;48.158;11.816;2022-07-19T03:08:53;3.23;;;2.70;;
4634;SDS011;2330;48.158;11.816;2022-07-19T03:11:20;5.30;;;2.70;;
4634;SDS011;2330;48.158;11.816;2022-07-19T03:13:46;7.40;;;3.03;;
4634;SDS011;2330;48.158;11.816;2022-07-19T03:16:13;5.10;;;2.63;;
4634;SDS011;2330;48.158;11.816;2022-07-19T03:18:41;4.23;;;3.20;;
4634;SDS011;2330;48.158;11.816;2022-07-19T03:21:08;3.20;;;2.87;;
4634;SDS011;2330;48.158;11.816;2022-07-19T03:23:35;3.60;;;2.53;;
4634;SDS011;2330;48.158;11.816;2022-07-19T03:26:03;5.13;;;2.77;;
4634;SDS011;2330;48.158;11.816;2022-07-19T03:28:31;4.73;;;2.87;;
4634;SDS011;2330;48.158;11.816;2022-07-19T03:30:58;4.40;;;2.80;;
4634;SDS011;2330;48.158;11.816;2022-07-19T03:33:25;7.40;;;2.57;;
4634;SDS011;2330;48.158;11.816;2022-07-19T03:35:52;3.80;;;2.67;;
4634;SDS011;2330;48.158;11.816;2022-07-19T03:38:19;6.60;;;3.00;;
4634;SDS011;2330;48.158;11.816;2022-07-19T03:40:46;2.70;;;2.50;;
4634;SDS011;2330;48.158;11.816;2022-07-19T03:43:14;6.80;;;3.83;;
4634;SDS011;2330;48.158;11.816;2022-07-19T03:45:43;3.60;;;3.23;;
4634;SDS011;2330;48.158;11.816;2022-07-19T03:48:10;5.00;;;3.10;;
4634;SDS011;2330;48.158;11.816;2022-07-19T03:50:38;3.87;;;3.00;;
4634;SDS011;2330;48.158;11.816;2022-07-19T03:53:05;4.20;;;2.70;;
4634;SDS011;2330;48.158;11.816;2022-07-19T03:55:32;3.03;;;2.73;;
4634;SDS011;2330;48.158;11.816;2022-07-19T03:57:59;3.00;;;2.80;;
4634;SDS011;2330;48.158;11.816;2022-07-19T04:00:25;3.03;;;2.83;;
4634;SDS011;2330;48.158;11.816;2022-07-19T04:02:52;6.80;;;2.73;;
4634;SDS011;2330;48.158;11.816;2022-07-19T04:05:19;3.00;;;2.63;;
4634;SDS011;2330;48.158;11.816;2022-07-19T04:07:46;5.10;;;3.13;;
4634;SDS011;2330;48.158;11.816;2022-07-19T04:10:14;2.90;;;2.70;;
4634;SDS011;2330;48.158;11.816;2022-07-19T04:12:41;2.83;;;2.63;;
4634;SDS011;2330;48.158;11.816;2022-07-19T04:15:07;3.93;;;3.07;;
4634;SDS011;2330;48.158;11.816;2022-07-19T04:17:35;2.90;;;2.30;;
4634;SDS011;2330;48.158;11.816;2022-07-19T04:20:02;4.87;;;3.10;;
4634;SDS011;2330;48.158;11.816;2022-07-19T04:22:30;7.63;;;3.10;;
4634;SDS011;2330;48.158;11.816;2022-07-19T04:24:57;3.50;;;3.13;;
4634;SDS011;2330;48.158;11.816;2022-07-19T04:27:24;5.27;;;2.93;;
4634;SDS011;2330;48.158;11.816;2022-07-19T04:29:51;7.20;;;3.27;;
4634;SDS011;2330;48.158;11.816;2022-07-19T04:32:17;6.00;;;3.00;;
4634;SDS011;2330;48.158;11.816;2022-07-19T04:34:46;6.90;;;3.20;;
4634;SDS011;2330;48.158;11.816;2022-07-19T04:37:13;3.00;;;2.73;;
4634;SDS011;2330;48.158;11.816;2022-07-19T04:39:41;3.70;;;2.40;;
4634;SDS011;2330;48.158;11.816;2022-07-19T04:42:08;4.13;;;2.43;;
4634;SDS011;2330;48.158;11.816;2022-07-19T04:44:35;8.77;;;2.90;;
4634;SDS011;2330;48.158;11.816;2022-07-19T04:47:01;2.87;;;2.60;;
4634;SDS011;2330;48.158;11.816;2022-07-19T04:49:29;4.40;;;2.43;;
4634;SDS011;2330;48.158;11.816;2022-07-19T04:51:55;2.47;;;2.20;;
4634;SDS011;2330;48.158;11.816;2022-07-19T04:54:22;2.20;;;2.00;;
4634;SDS011;2330;48.158;11.816;2022-07-19T04:56:49;5.80;;;3.10;;
4634;SDS011;2330;48.158;11.816;2022-07-19T04:59:16;5.53;;;2.67;;
4634;SDS011;2330;48.158;11.816;2022-07-19T05:01:43;4.37;;;2.80;;
4634;SDS011;2330;48.158;11.816;2022-07-19T05:04:17;7.90;;;2.80;;
4634;SDS011;2330;48.158;11.816;2022-07-19T05:06:44;4.60;;;3.10;;
4634;SDS011;2330;48.158;11.816;2022-07-19T05:09:10;6.33;;;2.70;;
4634;SDS011;2330;48.158;11.816;2022-07-19T05:11:43;3.80;;;2.90;;
4634;SDS011;2330;48.158;11.816;2022-07-19T05:14:09;3.67;;;2.47;;
4634;SDS011;2330;48.158;11.816;2022-07-19T05:16:36;2.20;;;2.00;;
4634;SDS011;2330;48.158;11.816;2022-07-19T05:19:03;4.47;;;2.50;;
4634;SDS011;2330;48.158;11.816;2022-07-19T05:21:30;2.20;;;2.00;;
4634;SDS011;2330;48.158;11.816;2022-07-19T05:23:56;2.23;;;2.13;;
4634;SDS011;2330;48.158;11.816;2022-07-19T05:26:23;7.07;;;2.60;;
4634;SDS011;2330;48.158;11.816;2022-07-19T05:28:50;6.47;;;2.53;;
4634;SDS011;2330;48.158;11.816;2022-07-19T05:31:17;6.47;;;3.50;;
4634;SDS011;2330;48.158;11.816;2022-07-19T05:33:44;2.73;;;2.50;;
4634;SDS011;2330;48.158;11.816;2022-07-19T05:36:11;4.37;;;2.90;;
4634;SDS011;2330;48.158;11.816;2022-07-19T05:38:38;5.83;;;3.10;;
4634;SDS011;2330;48.158;11.816;2022-07-19T05:41:08;8.53;;;3.43;;
4634;SDS011;2330;48.158;11.816;2022-07-19T05:43:37;4.70;;;2.73;;
4634;SDS011;2330;48.158;11.816;2022-07-19T05:46:05;4.63;;;3.07;;
4634;SDS011;2330;48.158;11.816;2022-07-19T05:48:32;4.53;;;2.80;;
4634;SDS011;2330;48.158;11.816;2022-07-19T05:50:59;7.97;;;3.10;;
4634;SDS011;2330;48.158;11.816;2022-07-19T05:53:26;4.30;;;2.67;;
4634;SDS011;2330;48.158;11.816;2022-07-19T05:55:53;5.43;;;2.53;;
4634;SDS011;2330;48.158;11.816;2022-07-19T05:58:21;4.50;;;2.47;;
4634;SDS011;2330;48.158;11.816;2022-07-19T06:00:48;4.10;;;2.50;;
4634;SDS011;2330;48.158;11.816;2022-07-19T06:03:34;4.13;;;2.60;;
4634;SDS011;2330;48.158;11.816;2022-07-19T06:06:01;6.00;;;2.30;;
4634;SDS011;2330;48.158;11.816;2022-07-19T06:08:28;2.97;;;2.77;;
4634;SDS011;2330;48.158;11.816;2022-07-19T06:10:55;3.17;;;2.17;;
4634;SDS011;2330;48.158;11.816;2022-07-19T06:13:22;11.03;;;2.30;;
4634;SDS011;2330;48.158;11.816;2022-07-19T06:15:49;15.10;;;2.57;;
4634;SDS011;2330;48.158;11.816;2022-07-19T06:18:16;5.20;;;2.30;;
4634;SDS011;2330;48.158;11.816;2022-07-19T06:20:45;4.03;;;2.20;;
4634;SDS011;2330;48.158;11.816;2022-07-19T06:23:13;2.57;;;2.27;;
4634;SDS011;2330;48.158;11.816;2022-07-19T06:25:45;5.07;;;2.33;;
4634;SDS011;2330;48.158;11.816;2022-07-19T06:28:12;8.70;;;2.57;;
4634;SDS011;2330;48.158;11.816;2022-07-19T06:30:39;4.53;;;2.27;;
4634;SDS011;2330;48.158;11.816;2022-07-19T06:33:06;5.30;;;2.40;;
4634;SDS011;2330;48.158;11.816;2022-07-19T06:35:32;2.30;;;2.13;;
4634;SDS011;2330;48.158;11.816;2022-07-19T06:37:59;3.17;;;2.40;;
4634;SDS011;2330;48.158;11.816;2022-07-19T06:40:26;2.37;;;2.10;;
4634;SDS011;2330;48.158;11.816;2022-07-19T06:42:53;3.73;;;2.57;;
4634;SDS011;2330;48.158;11.816;2022-07-19T06:45:20;1.93;;;1.70;;
4634;SDS011;2330;48.158;11.816;2022-07-19T06:47:47;2.50;;;2.30;;
4634;SDS011;2330;48.158;11.816;2022-07-19T06:50:13;3.00;;;2.57;;
4634;SDS011;2330;48.158;11.816;2022-07-19T06:53:00;1.80;;;1.70;;
4634;SDS011;2330;48.158;11.816;2022-07-19T06:55:27;3.93;;;1.97;;
4634;SDS011;2330;48.158;11.816;2022-07-19T06:57:54;6.00;;;2.00;;
4634;SDS011;2330;48.158;11.816;2022-07-19T07:00:21;4.50;;;2.00;;
4634;SDS011;2330;48.158;11.816;2022-07-19T07:02:48;3.67;;;2.13;;
4634;SDS011;2330;48.158;11.816;2022-07-19T07:05:15;4.50;;;2.30;;
4634;SDS011;2330;48.158;11.816;2022-07-19T07:07:42;2.70;;;1.90;;
4634;SDS011;2330;48.158;11.816;2022-07-19T07:10:08;2.10;;;1.90;;
4634;SDS011;2330;48.158;11.816;2022-07-19T07:12:36;2.20;;;1.90;;
4634;SDS011;2330;48.158;11.816;2022-07-19T07:15:04;2.43;;;2.23;;
4634;SDS011;2330;48.158;11.816;2022-07-19T07:17:32;6.37;;;2.60;;
4634;SDS011;2330;48.158;11.816;2022-07-19T07:19:59;4.30;;;2.20;;
4634;SDS011;2330;48.158;11.816;2022-07-19T07:22:26;3.50;;;2.30;;
4634;SDS011;2330;48.158;11.816;2022-07-19T07:24:53;6.93;;;2.57;;
4634;SDS011;2330;48.158;11.816;2022-07-19T07:27:20;3.63;;;1.80;;
4634;SDS011;2330;48.158;11.816;2022-07-19T07:29:49;2.03;;;1.70;;
4634;SDS011;2330;48.158;11.816;2022-07-19T07:32:16;4.93;;;2.53;;
4634;SDS011;2330;48.158;11.816;2022-07-19T07:34:44;2.43;;;2.10;;
4634;SDS011;2330;48.158;11.816;2022-07-19T07:37:11;3.93;;;2.30;;
4634;SDS011;2330;48.158;11.816;2022-07-19T07:39:38;4.43;;;2.20;;
4634;SDS011;2330;48.158;11.816;2022-07-19T07:42:05;2.63;;;2.00;;
4634;SDS011;2330;48.158;11.816;2022-07-19T07:44:38;2.50;;;1.67;;
4634;SDS011;2330;48.158;11.816;2022-07-19T07:47:05;2.70;;;1.40;;
4634;SDS011;2330;48.158;11.816;2022-07-19T07:49:35;1.67;;;1.57;;
4634;SDS011;2330;48.158;11.816;2022-07-19T07:52:03;2.00;;;1.90;;
4634;SDS011;2330;48.158;11.816;2022-07-19T07:54:31;2.10;;;1.80;;
4634;SDS011;2330;48.158;11.816;2022-07-19T07:56:58;1.57;;;1.47;;
4634;SDS011;2330;48.158;11.816;2022-07-19T07:59:25;1.97;;;1.70;;
4634;SDS011;2330;48.158;11.816;2022-07-19T08:01:52;2.90;;;1.90;;
4634;SDS011;2330;48.158;11.816;2022-07-19T08:04:25;1.80;;;1.60;;
4634;SDS011;2330;48.158;11.816;2022-07-19T08:06:52;3.50;;;1.70;;
4634;SDS011;2330;48.158;11.816;2022-07-19T08:09:19;2.40;;;1.63;;
4634;SDS011;2330;48.158;11.816;2022-07-19T08:11:47;3.27;;;2.17;;
4634;SDS011;2330;48.158;11.816;2022-07-19T08:14:14;2.23;;;1.80;;
4634;SDS011;2330;48.158;11.816;2022-07-19T08:16:40;1.63;;;1.50;;
4634;SDS011;2330;48.158;11.816;2022-07-19T08:19:08;3.50;;;1.47;;
4634;SDS011;2330;48.158;11.816;2022-07-19T08:21:35;4.20;;;1.90;;
4634;SDS011;2330;48.158;11.816;2022-07-19T08:24:02;2.33;;;1.90;;
4634;SDS011;2330;48.158;11.816;2022-07-19T08:26:38;8.00;;;1.53;;
4634;SDS011;2330;48.158;11.816;2022-07-19T08:29:05;2.90;;;1.40;;
4634;SDS011;2330;48.158;11.816;2022-07-19T08:31:31;2.00;;;1.90;;
4634;SDS011;2330;48.158;11.816;2022-07-19T08:33:59;2.90;;;1.60;;
4634;SDS011;2330;48.158;11.816;2022-07-19T08:36:25;1.70;;;1.60;;
4634;SDS011;2330;48.158;11.816;2022-07-19T08:38:52;5.53;;;1.90;;
4634;SDS011;2330;48.158;11.816;2022-07-19T08:41:19;2.30;;;2.07;;
4634;SDS011;2330;48.158;11.816;2022-07-19T08:43:48;6.10;;;1.70;;
4634;SDS011;2330;48.158;11.816;2022-07-19T08:46:16;1.50;;;1.30;;
4634;SDS011;2330;48.158;11.816;2022-07-19T08:48:46;1.87;;;1.70;;
4634;SDS011;2330;48.158;11.816;2022-07-19T08:51:18;2.77;;;1.80;;
4634;SDS011;2330;48.158;11.816;2022-07-19T08:53:46;2.10;;;1.63;;
4634;SDS011;2330;48.158;11.816;2022-07-19T08:56:14;1.63;;;1.40;;
4634;SDS011;2330;48.158;11.816;2022-07-19T08:59:00;6.93;;;1.43;;
4634;SDS011;2330;48.158;11.816;2022-07-19T09:01:27;8.27;;;1.87;;
4634;SDS011;2330;48.158;11.816;2022-07-19T09:06:45;5.77;;;2.10;;
4634;SDS011;2330;48.158;11.816;2022-07-19T09:09:17;4.10;;;1.63;;
4634;SDS011;2330;48.158;11.816;2022-07-19T09:11:50;2.73;;;1.80;;
4634;SDS011;2330;48.158;11.816;2022-07-19T09:14:22;3.30;;;1.43;;
4634;SDS011;2330;48.158;11.816;2022-07-19T09:19:19;1.90;;;1.60;;
4634;SDS011;2330;48.158;11.816;2022-07-19T09:21:53;3.80;;;1.70;;
4634;SDS011;2330;48.158;11.816;2022-07-19T09:24:30;3.47;;;1.30;;
4634;SDS011;2330;48.158;11.816;2022-07-19T09:27:07;8.30;;;1.80;;
4634;SDS011;2330;48.158;11.816;2022-07-19T09:29:39;1.50;;;1.40;;
4634;SDS011;2330;48.158;11.816;2022-07-19T09:32:14;2.67;;;1.50;;
4634;SDS011;2330;48.158;11.816;2022-07-19T09:34:50;4.13;;;1.43;;
4634;SDS011;2330;48.158;11.816;2022-07-19T09:37:20;3.23;;;1.73;;
4634;SDS011;2330;48.158;11.816;2022-07-19T09:39:51;3.60;;;1.53;;
4634;SDS011;2330;48.158;11.816;2022-07-19T09:42:21;2.80;;;1.30;;
4634;SDS011;2330;48.158;11.816;2022-07-19T09:45:05;2.03;;;1.87;;
4634;SDS011;2330;48.158;11.816;2022-07-19T09:47:34;4.10;;;2.03;;
4634;SDS011;2330;48.158;11.816;2022-07-19T09:50:05;2.37;;;1.63;;
4634;SDS011;2330;48.158;11.816;2022-07-19T09:52:34;7.60;;;1.30;;
4634;SDS011;2330;48.158;11.816;2022-07-19T09:55:11;2.50;;;1.57;;
4634;SDS011;2330;48.158;11.816;2022-07-19T09:57:39;6.03;;;1.73;;
4634;SDS011;2330;48.158;11.816;2022-07-19T10:00:08;2.00;;;1.40;;
4634;SDS011;2330;48.158;11.816;2022-07-19T10:02:39;1.37;;;1.27;;
4634;SDS011;2330;48.158;11.816;2022-07-19T10:05:07;1.70;;;1.60;;
4634;SDS011;2330;48.158;11.816;2022-07-19T10:07:35;2.33;;;1.60;;
4634;SDS011;2330;48.158;11.816;2022-07-19T10:10:04;1.90;;;1.53;;
4634;SDS011;2330;48.158;11.816;2022-07-19T10:12:32;1.47;;;1.37;;
4634;SDS011;2330;48.158;11.816;2022-07-19T10:14:59;1.80;;;1.47;;
4634;SDS011;2330;48.158;11.816;2022-07-19T10:17:37;1.70;;;1.60;;
4634;SDS011;2330;48.158;11.816;2022-07-19T10:20:10;2.03;;;1.60;;
4634;SDS011;2330;48.158;11.816;2022-07-19T10:22:42;1.77;;;1.67;;
4634;SDS011;2330;48.158;11.816;2022-07-19T10:25:10;3.03;;;1.57;;
4634;SDS011;2330;48.158;11.816;2022-07-19T10:32:34;5.00;;;1.40;;
4634;SDS011;2330;48.158;11.816;2022-07-19T10:35:20;1.80;;;1.40;;
4634;SDS011;2330;48.158;11.816;2022-07-19T10:37:54;3.53;;;1.60;;
4634;SDS011;2330;48.158;11.816;2022-07-19T10:40:45;3.33;;;1.50;;
4634;SDS011;2330;48.158;11.816;2022-07-19T10:43:14;2.50;;;1.97;;
4634;SDS011;2330;48.158;11.816;2022-07-19T10:45:43;7.07;;;2.07;;
4634;SDS011;2330;48.158;11.816;2022-07-19T10:48:34;1.63;;;1.50;;
4634;SDS011;2330;48.158;11.816;2022-07-19T10:51:12;3.33;;;1.70;;
4634;SDS011;2330;48.158;11.816;2022-07-19T10:56:25;1.77;;;1.67;;
4634;SDS011;2330;48.158;11.816;2022-07-19T10:58:58;5.90;;;1.97;;
4634;SDS011;2330;48.158;11.816;2022-07-19T11:01:28;4.50;;;1.53;;
4634;SDS011;2330;48.158;11.816;2022-07-19T11:04:21;4.27;;;1.87;;
4634;SDS011;2330;48.158;11.816;2022-07-19T11:07:08;2.03;;;1.83;;
4634;SDS011;2330;48.158;11.816;2022-07-19T11:09:43;3.43;;;1.57;;
4634;SDS011;2330;48.158;11.816;2022-07-19T11:12:22;3.40;;;1.67;;
4634;SDS011;2330;48.158;11.816;2022-07-19T11:14:57;3.83;;;2.00;;
4634;SDS011;2330;48.158;11.816;2022-07-19T11:17:39;4.80;;;2.10;;
4634;SDS011;2330;48.158;11.816;2022-07-19T11:20:16;8.20;;;2.57;;
4634;SDS011;2330;48.158;11.816;2022-07-19T11:22:46;1.80;;;1.70;;
4634;SDS011;2330;48.158;11.816;2022-07-19T11:25:15;3.27;;;1.90;;
4634;SDS011;2330;48.158;11.816;2022-07-19T11:27:48;4.50;;;1.97;;
4634;SDS011;2330;48.158;11.816;2022-07-19T11:30:15;3.03;;;2.57;;
4634;SDS011;2330;48.158;11.816;2022-07-19T11:32:42;6.20;;;2.40;;
4634;SDS011;2330;48.158;11.816;2022-07-19T11:35:16;4.87;;;2.20;;
4634;SDS011;2330;48.158;11.816;2022-07-19T11:37:43;2.70;;;1.97;;
4634;SDS011;2330;48.158;11.816;2022-07-19T11:40:10;2.97;;;2.30;;
4634;SDS011;2330;48.158;11.816;2022-07-19T11:42:45;4.27;;;2.10;;
4634;SDS011;2330;48.158;11.816;2022-07-19T11:45:40;3.07;;;2.50;;
4634;SDS011;2330;48.158;11.816;2022-07-19T11:48:11;3.20;;;1.93;;
4634;SDS011;2330;48.158;11.816;2022-07-19T11:50:37;3.10;;;2.30;;
4634;SDS011;2330;48.158;11.816;2022-07-19T11:53:15;3.90;;;2.03;;
4634;SDS011;2330;48.158;11.816;2022-07-19T11:55:46;5.23;;;2.20;;
4634;SDS011;2330;48.158;11.816;2022-07-19T11:58:13;2.47;;;2.10;;
4634;SDS011;2330;48.158;11.816;2022-07-19T12:00:40;3.47;;;2.40;;
4634;SDS011;2330;48.158;11.816;2022-07-19T12:03:16;8.80;;;2.63;;
4634;SDS011;2330;48.158;11.816;2022-07-19T12:05:55;6.00;;;2.10;;
4634;SDS011;2330;48.158;11.816;2022-07-19T12:11:02;3.60;;;2.63;;
4634;SDS011;2330;48.158;11.816;2022-07-19T12:13:41;8.93;;;2.20;;
4634;SDS011;2330;48.158;11.816;2022-07-19T12:16:14;3.23;;;2.13;;
4634;SDS011;2330;48.158;11.816;2022-07-19T12:18:52;4.10;;;2.33;;
4634;SDS011;2330;48.158;11.816;2022-07-19T12:21:57;2.37;;;2.17;;
4634;SDS011;2330;48.158;11.816;2022-07-19T12:24:20;2.77;;;2.57;;
4634;SDS011;2330;48.158;11.816;2022-07-19T12:29:33;12.90;;;2.77;;
4634;SDS011;2330;48.158;11.816;2022-07-19T12:32:07;2.80;;;2.33;;
4634;SDS011;2330;48.158;11.816;2022-07-19T12:34:48;4.23;;;2.77;;
4634;SDS011;2330;48.158;11.816;2022-07-19T12:37:26;5.93;;;2.83;;
4634;SDS011;2330;48.158;11.816;2022-07-19T12:42:47;5.10;;;3.50;;
4634;SDS011;2330;48.158;11.816;2022-07-19T12:45:21;4.67;;;3.33;;
4634;SDS011;2330;48.158;11.816;2022-07-19T12:47:49;6.60;;;3.30;;
4634;SDS011;2330;48.158;11.816;2022-07-19T12:50:21;6.53;;;3.30;;
4634;SDS011;2330;48.158;11.816;2022-07-19T12:52:51;6.90;;;3.10;;
4634;SDS011;2330;48.158;11.816;2022-07-19T12:55:19;4.80;;;3.20;;
4634;SDS011;2330;48.158;11.816;2022-07-19T12:57:47;6.03;;;3.07;;
4634;SDS011;2330;48.158;11.816;2022-07-19T13:00:16;4.07;;;3.07;;
4634;SDS011;2330;48.158;11.816;2022-07-19T13:02:44;4.67;;;3.60;;
4634;SDS011;2330;48.158;11.816;2022-07-19T13:05:12;5.33;;;3.43;;
4634;SDS011;2330;48.158;11.816;2022-07-19T13:07:39;6.80;;;4.20;;
4634;SDS011;2330;48.158;11.816;2022-07-19T13:10:07;8.03;;;4.10;;
4634;SDS011;2330;48.158;11.816;2022-07-19T13:12:34;5.70;;;3.80;;
4634;SDS011;2330;48.158;11.816;2022-07-19T13:15:05;4.70;;;3.43;;
4634;SDS011;2330;48.158;11.816;2022-07-19T13:17:32;4.67;;;4.10;;
4634;SDS011;2330;48.158;11.816;2022-07-19T13:19:59;6.00;;;3.70;;
4634;SDS011;2330;48.158;11.816;2022-07-19T13:22:26;4.37;;;3.80;;
4634;SDS011;2330;48.158;11.816;2022-07-19T13:24:53;4.30;;;3.40;;
4634;SDS011;2330;48.158;11.816;2022-07-19T13:27:40;4.80;;;3.37;;
4634;SDS011;2330;48.158;11.816;2022-07-19T13:30:07;5.90;;;3.50;;
4634;SDS011;2330;48.158;11.816;2022-07-19T13:32:34;4.53;;;3.43;;
4634;SDS011;2330;48.158;11.816;2022-07-19T13:35:01;4.13;;;3.73;;
4634;SDS011;2330;48.158;11.816;2022-07-19T13:37:28;6.40;;;3.97;;
4634;SDS011;2330;48.158;11.816;2022-07-19T13:39:55;4.27;;;3.50;;
4634;SDS011;2330;48.158;11.816;2022-07-19T13:42:22;12.63;;;3.73;;
4634;SDS011;2330;48.158;11.816;2022-07-19T13:44:49;6.80;;;3.93;;
4634;SDS011;2330;48.158;11.816;2022-07-19T13:47:16;10.93;;;4.70;;
4634;SDS011;2330;48.158;11.816;2022-07-19T13:49:43;7.67;;;4.40;;
4634;SDS011;2330;48.158;11.816;2022-07-19T13:52:09;5.63;;;4.50;;
4634;SDS011;2330;48.158;11.816;2022-07-19T13:54:36;5.37;;;4.43;;
4634;SDS011;2330;48.158;11.816;2022-07-19T13:57:03;6.80;;;5.07;;
4634;SDS011;2330;48.158;11.816;2022-07-19T13:59:30;7.23;;;4.20;;
4634;SDS011;2330;48.158;11.816;2022-07-19T14:01:57;4.23;;;3.40;;
4634;SDS011;2330;48.158;11.816;2022-07-19T14:04:24;7.23;;;4.07;;
4634;SDS011;2330;48.158;11.816;2022-07-19T14:06:51;5.90;;;5.30;;
4634;SDS011;2330;48.158;11.816;2022-07-19T14:09:18;7.83;;;4.27;;
4634;SDS011;2330;48.158;11.816;2022-07-19T14:11:45;13.70;;;4.57;;
4634;SDS011;2330;48.158;11.816;2022-07-19T14:14:12;11.70;;;4.80;;
4634;SDS011;2330;48.158;11.816;2022-07-19T14:16:39;15.20;;;4.70;;
4634;SDS011;2330;48.158;11.816;2022-07-19T14:19:07;7.37;;;4.83;;
4634;SDS011;2330;48.158;11.816;2022-07-19T14:21:34;11.77;;;4.87;;
4634;SDS011;2330;48.158;11.816;2022-07-19T14:24:01;8.57;;;4.73;;
4634;SDS011;2330;48.158;11.816;2022-07-19T14:26:28;5.30;;;4.37;;
4634;SDS011;2330;48.158;11.816;2022-07-19T14:28:55;6.90;;;4.70;;
4634;SDS011;2330;48.158;11.816;2022-07-19T14:31:22;9.63;;;4.00;;
4634;SDS011;2330;48.158;11.816;2022-07-19T14:33:49;3.93;;;3.40;;
4634;SDS011;2330;48.158;11.816;2022-07-19T14:36:36;6.13;;;4.03;;
4634;SDS011;2330;48.158;11.816;2022-07-19T14:39:03;4.97;;;4.00;;
4634;SDS011;2330;48.158;11.816;2022-07-19T14:41:32;6.50;;;3.93;;
4634;SDS011;2330;48.158;11.816;2022-07-19T14:43:58;6.73;;;4.10;;
4634;SDS011;2330;48.158;11.816;2022-07-19T14:46:25;5.90;;;4.53;;
4634;SDS011;2330;48.158;11.816;2022-07-19T14:48:52;5.60;;;4.10;;
4634;SDS011;2330;48.158;11.816;2022-07-19T14:51:18;7.60;;;3.73;;
4634;SDS011;2330;48.158;11.816;2022-07-19T14:53:45;4.07;;;3.63;;
4634;SDS011;2330;48.158;11.816;2022-07-19T14:56:12;4.30;;;3.50;;
4634;SDS011;2330;48.158;11.816;2022-07-19T14:58:39;5.47;;;3.27;;
4634;SDS011;2330;48.158;11.816;2022-07-19T15:01:08;8.73;;;3.63;;
4634;SDS011;2330;48.158;11.816;2022-07-19T15:03:35;7.07;;;4.27;;
4634;SDS011;2330;48.158;11.816;2022-07-19T15:06:02;6.77;;;4.53;;
4634;SDS011;2330;48.158;11.816;2022-07-19T15:08:29;3.93;;;3.30;;
4634;SDS011;2330;48.158;11.816;2022-07-19T15:10:56;5.53;;;3.27;;
4634;SDS011;2330;48.158;11.816;2022-07-19T15:13:23;23.90;;;6.23;;
4634;SDS011;2330;48.158;11.816;2022-07-19T15:15:49;12.03;;;4.70;;
4634;SDS011;2330;48.158;11.816;2022-07-19T15:18:18;17.83;;;3.60;;
4634;SDS011;2330;48.158;11.816;2022-07-19T15:20:47;5.17;;;3.33;;
4634;SDS011;2330;48.158;11.816;2022-07-19T15:23:14;3.80;;;3.50;;
4634;SDS011;2330;48.158;11.816;2022-07-19T15:25:40;6.67;;;3.80;;
4634;SDS011;2330;48.158;11.816;2022-07-19T15:28:07;6.27;;;3.80;;
4634;SDS011;2330;48.158;11.816;2022-07-19T15:30:34;9.33;;;4.60;;
4634;SDS011;2330;48.158;11.816;2022-07-19T15:33:01;5.77;;;4.43;;